createdAt,value
2018-11-01T00:04:26.421Z,67.40
2018-11-01T00:07:07.675Z,66.10
2018-11-01T00:10:01.015Z,66.00
2018-11-01T00:12:45.508Z,65.90
2018-11-01T00:18:26.910Z,66.10
2018-11-01T00:21:20.393Z,66.20
2018-11-01T00:24:33.570Z,66.30
2018-11-01T00:27:14.309Z,65.60
2018-11-01T00:29:58.052Z,65.70
2018-11-01T00:32:39.698Z,66.00
2018-11-01T00:35:22.184Z,66.00
2018-11-01T00:38:03.673Z,66.00
2018-11-01T00:40:48.431Z,65.40
2018-11-01T00:43:31.538Z,65.60
2018-11-01T00:46:10.499Z,66.30
2018-11-01T00:48:50.856Z,65.00
2018-11-01T00:51:34.585Z,65.30
2018-11-01T00:54:17.211Z,68.10
2018-11-01T00:56:58.713Z,64.60
2018-11-01T00:59:43.445Z,64.50
2018-11-01T01:11:16.409Z,64.50
2018-11-01T01:13:54.390Z,64.50
2018-11-01T01:16:32.639Z,64.40
2018-11-01T01:19:11.087Z,64.30
2018-11-01T01:21:49.415Z,64.20
2018-11-01T01:24:27.955Z,63.90
2018-11-01T01:27:06.690Z,64.40
2018-11-01T01:29:47.476Z,64.00
2018-11-01T01:35:57.897Z,63.80
2018-11-01T01:38:46.800Z,64.00
2018-11-01T01:41:29.603Z,66.10
2018-11-01T01:44:10.179Z,65.50
2018-11-01T01:49:49.512Z,62.70
2018-11-01T01:52:31.136Z,66.40
2018-11-01T01:55:09.126Z,62.90
2018-11-01T01:57:46.284Z,66.00
2018-11-01T02:00:23.896Z,64.30
2018-11-01T02:03:04.140Z,63.80
2018-11-01T02:05:43.002Z,62.70
2018-11-01T02:08:24.404Z,63.20
2018-11-01T02:11:04.841Z,62.40
2018-11-01T02:13:47.081Z,62.30
2018-11-01T02:16:30.519Z,65.00
2018-11-01T02:19:18.748Z,63.30
2018-11-01T02:22:04.133Z,61.90
2018-11-01T02:27:50.319Z,62.10
2018-11-01T02:30:29.378Z,62.00
2018-11-01T02:33:09.676Z,61.30
2018-11-01T02:35:48.918Z,62.50
2018-11-01T02:38:29.693Z,62.70
2018-11-01T02:41:06.523Z,62.50
2018-11-01T02:43:44.345Z,61.10
2018-11-01T02:46:23.849Z,60.60
2018-11-01T02:49:02.470Z,62.20
2018-11-01T02:51:41.511Z,64.10
2018-11-01T02:54:19.012Z,63.20
2018-11-01T02:56:56.860Z,60.70
2018-11-01T02:59:35.863Z,62.50
2018-11-01T03:02:15.872Z,58.50
2018-11-01T03:04:56.776Z,59.60
2018-11-01T03:07:40.328Z,62.10
2018-11-01T03:10:19.692Z,60.00
2018-11-01T03:12:58.066Z,57.70
2018-11-01T03:15:35.029Z,57.20
2018-11-01T03:18:12.308Z,60.80
2018-11-01T03:20:50.679Z,61.60
2018-11-01T03:23:29.387Z,57.90
2018-11-01T03:26:09.645Z,56.60
2018-11-01T03:28:48.600Z,56.20
2018-11-01T03:31:25.791Z,57.90
2018-11-01T03:34:27.616Z,57.40
2018-11-01T03:37:10.274Z,57.20
2018-11-01T03:43:28.293Z,58.80
2018-11-01T03:46:11.258Z,63.20
2018-11-01T03:48:51.233Z,60.00
2018-11-01T03:51:30.869Z,64.00
2018-11-01T03:54:12.927Z,58.50
2018-11-01T03:56:53.905Z,57.10
2018-11-01T03:59:34.018Z,58.60
2018-11-01T04:02:13.599Z,58.40
2018-11-01T04:05:00.824Z,58.30
2018-11-01T04:07:39.404Z,57.10
2018-11-01T04:10:22.983Z,58.00
2018-11-01T04:13:01.964Z,58.30
2018-11-01T04:15:41.273Z,58.90
2018-11-01T04:18:18.533Z,60.50
2018-11-01T04:20:59.528Z,58.00
2018-11-01T04:23:36.491Z,56.20
2018-11-01T04:26:15.599Z,56.90
2018-11-01T04:28:52.891Z,57.20
2018-11-01T04:31:31.247Z,56.00
2018-11-01T04:34:12.131Z,57.10
2018-11-01T04:36:49.955Z,54.90
2018-11-01T04:39:36.119Z,54.80
2018-11-01T04:42:15.470Z,57.90
2018-11-01T04:44:54.272Z,57.50
2018-11-01T04:50:17.725Z,56.60
2018-11-01T04:52:56.288Z,56.20
2018-11-01T04:55:34.845Z,56.00
2018-11-01T04:58:13.050Z,54.40
2018-11-01T05:00:50.098Z,53.40
2018-11-01T05:03:29.934Z,55.00
2018-11-01T05:06:08.573Z,55.10
2018-11-01T05:08:46.537Z,55.60
2018-11-01T05:11:24.440Z,55.60
2018-11-01T05:14:02.359Z,56.40
2018-11-01T05:16:39.293Z,55.20
2018-11-01T05:19:17.608Z,54.20
2018-11-01T05:21:54.309Z,54.70
2018-11-01T05:24:32.300Z,54.50
2018-11-01T05:27:10.345Z,55.10
2018-11-01T05:29:47.019Z,53.10
2018-11-01T05:32:24.656Z,54.50
2018-11-01T05:35:03.595Z,54.10
2018-11-01T05:37:41.418Z,53.50
2018-11-01T05:40:18.470Z,52.40
2018-11-01T05:42:56.972Z,51.80
2018-11-01T05:45:34.559Z,52.70
2018-11-01T05:48:11.724Z,52.00
2018-11-01T05:50:49.699Z,54.60
2018-11-01T05:53:27.911Z,51.50
2018-11-01T05:56:04.962Z,52.10
2018-11-01T05:58:42.920Z,53.30
2018-11-01T06:01:25.217Z,51.90
2018-11-01T06:04:03.356Z,52.30
2018-11-01T06:06:44.473Z,53.50
2018-11-01T06:09:32.195Z,53.60
2018-11-01T06:12:09.851Z,54.50
2018-11-01T06:14:47.701Z,52.50
2018-11-01T06:17:25.085Z,52.10
2018-11-01T06:20:04.424Z,52.00
2018-11-01T06:22:43.279Z,52.60
2018-11-01T06:25:20.722Z,52.70
2018-11-01T06:27:58.923Z,51.40
2018-11-01T06:30:37.223Z,50.40
2018-11-01T06:33:15.760Z,50.80
2018-11-01T06:35:59.748Z,50.50
2018-11-01T06:38:38.630Z,51.40
2018-11-01T06:41:16.848Z,50.80
2018-11-01T06:43:55.797Z,50.20
2018-11-01T06:46:33.818Z,51.30
2018-11-01T06:49:10.601Z,51.10
2018-11-01T06:51:48.126Z,50.20
2018-11-01T06:54:28.534Z,50.40
2018-11-01T06:57:05.692Z,49.60
2018-11-01T06:59:42.933Z,50.40
2018-11-01T07:02:23.076Z,49.70
2018-11-01T07:05:01.058Z,48.50
2018-11-01T07:07:37.307Z,49.10
2018-11-01T07:10:17.154Z,49.10
2018-11-01T07:12:54.589Z,50.20
2018-11-01T07:15:31.376Z,52.00
2018-11-01T07:18:09.771Z,51.40
2018-11-01T07:20:49.110Z,49.70
2018-11-01T07:23:27.129Z,49.30
2018-11-01T07:26:04.840Z,49.50
2018-11-01T07:28:43.256Z,50.20
2018-11-01T07:31:22.315Z,50.40
2018-11-01T07:34:00.089Z,52.10
2018-11-01T07:36:38.977Z,48.80
2018-11-01T07:39:17.824Z,47.70
2018-11-01T07:41:55.696Z,48.80
2018-11-01T07:44:35.730Z,48.60
2018-11-01T07:47:14.908Z,48.60
2018-11-01T07:49:55.888Z,48.90
2018-11-01T07:52:32.967Z,49.30
2018-11-01T07:55:11.677Z,48.70
2018-11-01T07:57:49.787Z,48.80
2018-11-01T08:00:27.840Z,49.60
2018-11-01T08:03:06.448Z,50.40
2018-11-01T08:05:44.093Z,49.20
2018-11-01T08:08:22.179Z,47.80
2018-11-01T08:11:02.850Z,48.10
2018-11-01T08:13:41.503Z,48.60
2018-11-01T08:16:19.613Z,50.80
2018-11-01T08:18:57.503Z,50.20
2018-11-01T08:21:33.981Z,48.80
2018-11-01T08:24:11.126Z,47.90
2018-11-01T08:26:48.759Z,48.40
2018-11-01T08:29:27.950Z,46.90
2018-11-01T08:32:04.815Z,47.10
2018-11-01T08:34:42.358Z,47.40
2018-11-01T08:37:21.733Z,49.40
2018-11-01T08:39:59.044Z,48.50
2018-11-01T08:42:36.973Z,49.40
2018-11-01T08:45:15.694Z,49.60
2018-11-01T08:47:53.788Z,51.50
2018-11-01T08:50:33.730Z,51.30
2018-11-01T08:53:12.752Z,53.00
2018-11-01T08:55:51.236Z,53.60
2018-11-01T08:58:30.049Z,53.20
2018-11-01T09:01:08.614Z,53.80
2018-11-01T09:03:46.847Z,52.10
2018-11-01T09:06:26.216Z,52.30
2018-11-01T09:09:04.969Z,51.80
2018-11-01T09:11:43.827Z,52.70
2018-11-01T09:14:21.337Z,53.70
2018-11-01T09:17:04.411Z,52.00
2018-11-01T09:19:42.993Z,52.80
2018-11-01T09:22:21.600Z,51.80
2018-11-01T09:25:00.188Z,52.10
2018-11-01T09:27:38.636Z,53.40
2018-11-01T09:30:17.401Z,53.30
2018-11-01T09:32:57.453Z,53.40
2018-11-01T09:35:37.042Z,53.30
2018-11-01T09:38:18.264Z,54.00
2018-11-01T09:40:55.312Z,53.20
2018-11-01T09:43:34.450Z,55.80
2018-11-01T09:46:12.884Z,55.70
2018-11-01T09:48:51.184Z,56.30
2018-11-01T09:51:29.328Z,54.90
2018-11-01T09:54:07.206Z,54.10
2018-11-01T09:56:49.236Z,56.00
2018-11-01T09:59:27.437Z,54.60
2018-11-01T10:02:05.510Z,54.50
2018-11-01T10:04:47.673Z,54.80
2018-11-01T10:07:25.653Z,56.60
2018-11-01T10:10:03.461Z,57.40
2018-11-01T10:12:41.973Z,56.60
2018-11-01T10:15:19.739Z,56.60
2018-11-01T10:17:58.354Z,56.10
2018-11-01T10:20:38.534Z,57.20
2018-11-01T10:23:17.113Z,57.00
2018-11-01T10:25:55.985Z,56.40
2018-11-01T10:28:34.419Z,56.20
2018-11-01T10:31:14.773Z,56.20
2018-11-01T10:33:54.617Z,56.40
2018-11-01T10:36:32.511Z,53.80
2018-11-01T10:39:12.035Z,54.30
2018-11-01T10:41:50.424Z,54.10
2018-11-01T10:44:27.859Z,55.00
2018-11-01T10:47:13.541Z,56.00
2018-11-01T10:49:51.342Z,56.70
2018-11-01T10:52:29.411Z,57.50
2018-11-01T10:55:07.936Z,58.10
2018-11-01T10:57:45.674Z,58.00
2018-11-01T11:02:32.401Z,57.70
2018-11-01T11:05:11.812Z,56.40
2018-11-01T11:07:50.534Z,57.00
2018-11-01T11:10:29.090Z,57.70
2018-11-01T11:13:06.513Z,57.00
2018-11-01T11:15:44.204Z,57.70
2018-11-01T11:18:22.929Z,58.70
2018-11-01T11:21:01.006Z,58.10
2018-11-01T11:23:39.610Z,56.80
2018-11-01T11:26:18.779Z,58.20
2018-11-01T11:28:58.834Z,57.90
2018-11-01T11:31:37.660Z,58.00
2018-11-01T11:34:16.130Z,57.20
2018-11-01T11:36:55.836Z,57.50
2018-11-01T11:39:34.303Z,57.30
2018-11-01T11:42:12.731Z,57.90
2018-11-01T11:44:49.820Z,58.00
2018-11-01T11:47:31.340Z,58.90
2018-11-01T11:50:11.537Z,59.20
2018-11-01T11:52:49.987Z,59.30
2018-11-01T11:55:27.733Z,58.90
2018-11-01T11:58:07.148Z,59.60
2018-11-01T12:02:13.538Z,56.90
2018-11-01T12:04:51.373Z,56.80
2018-11-01T12:07:28.299Z,56.50
2018-11-01T12:10:13.397Z,56.60
2018-11-01T12:12:51.853Z,56.50
2018-11-01T12:15:30.675Z,56.70
2018-11-01T12:43:07.472Z,55.20
2018-11-01T12:45:48.169Z,55.60
2018-11-01T12:48:26.962Z,56.40
2018-11-01T12:51:06.149Z,57.10
2018-11-01T12:54:40.763Z,57.40
2018-11-01T13:04:19.950Z,61.10
2018-11-01T13:16:39.546Z,49.50
2018-11-01T13:19:18.590Z,52.00
2018-11-01T13:21:58.288Z,53.70
2018-11-01T13:24:37.078Z,54.60
2018-11-01T13:27:16.124Z,55.30
2018-11-01T13:29:55.002Z,56.00
2018-11-01T13:32:38.327Z,56.20
2018-11-01T13:35:18.827Z,56.60
2018-11-01T13:38:01.491Z,57.00
2018-11-01T13:40:46.009Z,57.10
2018-11-01T13:43:24.238Z,57.30
2018-11-01T13:46:04.253Z,57.90
2018-11-01T13:48:44.166Z,58.40
2018-11-01T13:51:26.761Z,58.90
2018-11-01T13:54:06.595Z,58.90
2018-11-01T14:56:32.375Z,54.00
2018-11-01T14:59:13.138Z,55.50
2018-11-01T15:01:49.966Z,57.90
2018-11-01T15:04:28.952Z,58.80
2018-11-01T15:07:06.787Z,60.00
2018-11-01T15:09:46.137Z,59.40
2018-11-01T15:12:25.808Z,59.60
2018-11-01T15:15:05.164Z,59.70
2018-11-01T15:17:45.805Z,59.80
2018-11-01T15:20:25.829Z,60.80
2018-11-01T15:23:04.907Z,61.00
2018-11-01T15:25:42.656Z,60.60
2018-11-01T15:28:22.773Z,62.40
2018-11-01T15:31:01.304Z,60.90
2018-11-01T15:33:39.975Z,61.20
2018-11-01T15:36:18.223Z,60.90
2018-11-01T15:42:22.394Z,61.30
2018-11-01T15:45:00.495Z,61.50
2018-11-01T15:47:41.149Z,61.70
2018-11-01T15:50:20.263Z,61.70
2018-11-01T15:53:01.609Z,61.80
2018-11-01T15:55:44.775Z,62.00
2018-11-01T15:58:21.744Z,62.10
2018-11-01T16:00:59.651Z,62.20
2018-11-01T16:03:37.136Z,62.30
2018-11-01T16:06:18.810Z,62.30
2018-11-01T16:08:57.731Z,62.50
2018-11-01T16:11:37.797Z,62.50
2018-11-01T16:14:19.193Z,62.70
2018-11-01T16:16:57.416Z,62.60
2018-11-01T16:19:34.329Z,62.80
2018-11-01T16:22:12.289Z,62.80
2018-11-01T16:24:55.989Z,63.00
2018-11-01T16:27:33.669Z,63.20
2018-11-01T16:30:13.620Z,63.50
2018-11-01T16:32:53.401Z,63.60
2018-11-01T16:35:31.137Z,63.70
2018-11-01T16:38:07.624Z,63.60
2018-11-01T16:40:44.435Z,63.50
2018-11-01T16:43:21.399Z,63.60
2018-11-01T16:45:58.748Z,63.80
2018-11-01T16:48:38.643Z,63.70
2018-11-01T16:51:16.146Z,63.70
2018-11-01T16:53:54.631Z,63.70
2018-11-01T16:56:32.582Z,63.70
2018-11-01T16:59:10.996Z,63.60
2018-11-01T17:01:49.327Z,63.80
2018-11-01T17:04:27.002Z,63.80
2018-11-01T17:07:04.875Z,63.50
2018-11-01T17:09:43.100Z,63.80
2018-11-01T17:12:21.499Z,63.60
2018-11-01T17:14:59.732Z,63.50
2018-11-01T17:17:38.168Z,63.20
2018-11-01T17:20:15.195Z,63.40
2018-11-01T17:22:52.514Z,63.40
2018-11-01T17:25:31.178Z,63.30
2018-11-01T17:28:09.328Z,63.20
2018-11-01T17:30:47.532Z,63.10
2018-11-01T17:33:25.783Z,63.10
2018-11-01T17:36:03.308Z,63.00
2018-11-01T17:38:41.181Z,63.10
2018-11-01T17:41:18.402Z,63.10
2018-11-01T17:43:55.227Z,62.90
2018-11-01T17:46:32.725Z,63.20
2018-11-01T17:49:12.363Z,63.10
2018-11-01T17:51:49.662Z,63.30
2018-11-01T17:54:26.897Z,63.20
2018-11-01T17:57:03.342Z,63.40
2018-11-01T17:59:40.669Z,63.30
2018-11-01T18:02:17.896Z,63.40
2018-11-01T18:04:55.248Z,63.30
2018-11-01T18:07:32.636Z,63.40
2018-11-01T18:10:10.587Z,63.50
2018-11-01T18:12:47.696Z,63.50
2018-11-01T18:15:25.839Z,63.30
2018-11-01T18:18:03.400Z,63.40
2018-11-01T18:20:39.419Z,63.60
2018-11-01T18:23:16.837Z,63.40
2018-11-01T18:25:55.154Z,63.50
2018-11-01T18:28:32.078Z,63.30
2018-11-01T18:31:09.279Z,64.30
2018-11-01T18:33:47.369Z,63.50
2018-11-01T18:36:24.584Z,63.50
2018-11-01T18:39:02.333Z,63.70
2018-11-01T18:41:39.622Z,63.70
2018-11-01T18:44:17.481Z,63.70
2018-11-01T18:46:54.936Z,64.00
2018-11-01T18:49:33.421Z,64.00
2018-11-01T18:52:12.246Z,64.20
2018-11-01T18:54:49.681Z,64.90
2018-11-01T18:57:28.163Z,64.10
2018-11-01T19:00:05.376Z,64.20
2018-11-01T19:02:43.042Z,64.40
2018-11-01T19:05:20.205Z,64.40
2018-11-01T19:07:57.653Z,64.40
2018-11-01T19:10:35.008Z,64.40
2018-11-01T19:13:13.508Z,64.70
2018-11-01T19:15:55.922Z,64.70
2018-11-01T19:18:34.206Z,64.70
2018-11-01T19:21:11.850Z,65.10
2018-11-01T19:23:50.196Z,65.40
2018-11-01T19:26:29.839Z,65.30
2018-11-01T19:29:06.529Z,65.40
2018-11-01T19:31:44.028Z,65.50
2018-11-01T19:34:22.304Z,65.60
2018-11-01T19:37:00.681Z,65.70
2018-11-01T19:39:38.462Z,65.80
2018-11-01T19:42:15.701Z,65.80
2018-11-01T19:44:53.327Z,65.50
2018-11-01T19:47:29.787Z,65.50
2018-11-01T19:50:06.892Z,65.80
2018-11-01T19:52:44.630Z,66.00
2018-11-01T19:55:21.589Z,66.00
2018-11-01T19:57:58.253Z,66.20
2018-11-01T20:00:35.788Z,66.20
2018-11-01T20:03:13.761Z,66.40
2018-11-01T20:05:51.186Z,66.60
2018-11-01T20:09:05.113Z,66.50
2018-11-01T20:11:42.302Z,66.50
2018-11-01T20:14:19.958Z,66.50
2018-11-01T20:16:57.434Z,66.70
2018-11-01T20:19:35.008Z,66.80
2018-11-01T20:22:12.760Z,66.90
2018-11-01T20:24:50.480Z,67.00
2018-11-01T20:27:27.540Z,67.10
2018-11-01T20:30:05.067Z,67.10
2018-11-01T20:32:44.618Z,67.00
2018-11-01T20:35:21.813Z,67.20
2018-11-01T20:37:59.144Z,67.40
2018-11-01T20:40:36.943Z,67.60
2018-11-01T20:43:14.366Z,67.60
2018-11-01T20:45:52.034Z,67.60
2018-11-01T20:48:29.265Z,67.70
2018-11-01T20:51:08.004Z,67.90
2018-11-01T20:53:45.983Z,67.90
2018-11-01T20:56:22.979Z,67.90
2018-11-01T20:59:00.183Z,68.00
2018-11-01T21:01:37.685Z,68.00
2018-11-01T21:04:15.740Z,68.10
2018-11-01T21:06:52.833Z,68.30
2018-11-01T21:09:31.082Z,68.30
2018-11-01T21:12:10.187Z,68.30
2018-11-01T21:14:47.990Z,68.50
2018-11-01T21:17:24.911Z,68.50
2018-11-01T21:20:02.908Z,68.40
2018-11-01T21:22:39.854Z,68.50
2018-11-01T21:25:17.249Z,68.30
2018-11-01T21:27:54.756Z,68.50
2018-11-01T21:30:31.997Z,68.40
2018-11-01T21:33:14.073Z,68.50
2018-11-01T21:35:52.177Z,68.50
2018-11-01T21:38:29.142Z,68.40
2018-11-01T21:41:07.330Z,68.40
2018-11-01T21:43:47.077Z,68.60
2018-11-01T21:46:25.006Z,68.60
2018-11-01T21:49:02.286Z,68.70
2018-11-01T21:51:40.053Z,68.60
2018-11-01T21:54:17.546Z,68.60
2018-11-01T21:56:54.720Z,68.70
2018-11-01T21:59:32.203Z,69.40
2018-11-01T22:02:10.016Z,68.60
2018-11-01T22:04:49.409Z,68.60
2018-11-01T22:07:27.351Z,68.70
2018-11-01T22:10:07.331Z,68.60
2018-11-01T22:12:44.587Z,68.60
2018-11-01T22:15:22.797Z,68.60
2018-11-01T22:18:01.028Z,68.60
2018-11-01T22:20:38.844Z,68.50
2018-11-01T22:23:16.641Z,68.50
2018-11-01T22:25:53.933Z,68.30
2018-11-01T22:28:31.627Z,68.30
2018-11-01T22:31:09.824Z,68.30
2018-11-01T22:33:46.825Z,68.30
2018-11-01T22:36:24.441Z,68.20
2018-11-01T22:39:01.999Z,68.40
2018-11-01T22:41:39.636Z,68.30
2018-11-01T22:44:16.248Z,68.40
2018-11-01T22:46:53.814Z,68.20
2018-11-01T22:49:31.904Z,68.40
2018-11-01T22:54:55.310Z,67.80
2018-11-01T22:57:34.920Z,67.80
2018-11-01T23:00:16.192Z,68.70
2018-11-01T23:02:54.572Z,67.90
2018-11-01T23:05:32.334Z,68.30
2018-11-01T23:08:09.083Z,67.60
2018-11-01T23:10:46.398Z,67.50
2018-11-01T23:13:24.196Z,67.50
2018-11-01T23:16:03.312Z,68.70
2018-11-01T23:18:41.772Z,67.70
2018-11-01T23:21:18.341Z,67.50
2018-11-01T23:24:07.587Z,67.50
2018-11-01T23:26:47.062Z,67.70
2018-11-01T23:29:23.973Z,67.50
2018-11-01T23:32:01.592Z,67.70
2018-11-01T23:34:40.059Z,67.60
2018-11-01T23:37:20.611Z,67.90
2018-11-01T23:40:05.899Z,67.50
2018-11-01T23:42:53.994Z,67.90
2018-11-01T23:48:23.126Z,67.90
2018-11-01T23:51:03.934Z,67.30
2018-11-01T23:53:45.383Z,67.30
2018-11-01T23:56:25.058Z,67.20
2018-11-01T23:59:02.826Z,67.20
